Time;durP1;ratioP1;P1;durP2;ratioP2;P2;SDS_P1;SDS_P2;PMS_P1;PMS_P2;Temp;Humidity;BMP_temperature;BMP_pressure;BME280_temperature;BME280_humidity;BME280_pressure;Samples;Min_cycle;Max_cycle;Signal;HPM_P1;HPM_P2
2021/04/23 00:00:45;;;;;;;4.40;1.40;;;2.30;99.90;;;;;;5248577;28;20257;-71
2021/04/23 00:03:18;;;;;;;1.90;1.00;;;2.30;99.90;;;;;;5248224;28;20208;-69
2021/04/23 00:05:52;;;;;;;3.30;1.20;;;2.40;99.90;;;;;;5248525;28;20207;-72
2021/04/23 00:08:24;;;;;;;2.90;1.10;;;2.40;99.90;;;;;;5248396;28;20216;-72
2021/04/23 00:10:55;;;;;;;4.23;1.60;;;2.40;99.90;;;;;;5248616;28;20205;-68
2021/04/23 00:13:27;;;;;;;2.10;1.40;;;2.60;99.90;;;;;;5248391;28;20204;-73
2021/04/23 00:15:59;;;;;;;4.10;1.17;;;2.60;99.90;;;;;;5248410;28;20229;-70
2021/04/23 00:18:31;;;;;;;2.67;1.00;;;2.60;99.90;;;;;;5248219;28;20205;-70
2021/04/23 00:21:03;;;;;;;4.80;1.33;;;2.70;99.90;;;;;;5248090;28;20229;-70
2021/04/23 00:23:35;;;;;;;3.53;1.30;;;2.80;99.90;;;;;;5248266;28;20572;-71
2021/04/23 00:26:07;;;;;;;4.00;1.10;;;2.80;99.90;;;;;;5248222;28;20209;-71
2021/04/23 00:28:39;;;;;;;2.13;1.20;;;2.80;99.90;;;;;;5248350;28;20205;-68
2021/04/23 00:31:11;;;;;;;2.23;1.10;;;2.90;99.90;;;;;;5248281;28;20224;-68
2021/04/23 00:33:43;;;;;;;1.30;0.90;;;2.90;99.90;;;;;;5248151;28;20228;-67
2021/04/23 00:36:16;;;;;;;1.73;1.00;;;2.90;99.90;;;;;;5248257;28;20662;-71
2021/04/23 00:38:47;;;;;;;2.07;1.00;;;2.90;99.90;;;;;;5247253;28;20577;-70
2021/04/23 00:41:30;;;;;;;3.27;1.20;;;2.90;99.90;;;;;;5251117;28;20235;-70
2021/04/23 00:44:03;;;;;;;3.60;1.37;;;2.90;99.90;;;;;;5252506;28;20207;-67
2021/04/23 00:46:35;;;;;;;5.23;1.40;;;2.80;99.90;;;;;;5252555;28;20249;-72
2021/04/23 00:49:07;;;;;;;2.63;1.10;;;2.90;99.90;;;;;;5252542;28;20211;-71
2021/04/23 00:51:51;;;;;;;2.93;1.47;;;2.90;99.90;;;;;;5252281;28;20219;-69
2021/04/23 00:54:23;;;;;;;4.60;1.70;;;2.80;99.90;;;;;;5252491;28;20208;-68
2021/04/23 00:56:55;;;;;;;3.70;1.77;;;2.80;99.90;;;;;;5252402;28;20208;-70
2021/04/23 00:59:27;;;;;;;4.47;1.50;;;2.90;99.90;;;;;;5252398;28;20209;-69
2021/04/23 01:02:04;;;;;;;4.43;1.70;;;2.90;99.90;;;;;;5252771;28;20591;-71
2021/04/23 01:04:36;;;;;;;3.53;1.43;;;2.90;99.90;;;;;;5251885;28;20204;-70
2021/04/23 01:07:09;;;;;;;2.10;1.40;;;2.80;99.90;;;;;;5252183;28;20208;-70
2021/04/23 01:09:40;;;;;;;3.57;1.67;;;2.80;99.90;;;;;;5251781;28;20197;-69
2021/04/23 01:12:12;;;;;;;6.17;1.70;;;2.80;99.90;;;;;;5252293;28;20211;-68
2021/04/23 01:14:43;;;;;;;3.47;1.40;;;2.80;99.90;;;;;;5251959;28;20655;-70
2021/04/23 01:17:15;;;;;;;3.50;1.70;;;2.80;99.90;;;;;;5251549;28;20228;-69
2021/04/23 01:19:46;;;;;;;5.37;1.80;;;2.80;99.90;;;;;;5251749;28;20540;-69
2021/04/23 01:22:18;;;;;;;5.20;1.60;;;2.70;99.90;;;;;;5248538;28;20247;-69
2021/04/23 01:24:49;;;;;;;3.63;1.70;;;2.70;99.90;;;;;;5230641;28;20210;-69
2021/04/23 01:27:21;;;;;;;4.43;1.60;;;2.70;99.90;;;;;;5230842;28;20577;-69
2021/04/23 01:29:52;;;;;;;4.37;1.77;;;2.60;99.90;;;;;;5230593;28;20208;-69
2021/04/23 01:32:25;;;;;;;4.63;1.93;;;2.60;99.90;;;;;;5230748;28;20239;-70
2021/04/23 01:34:56;;;;;;;6.30;1.50;;;2.50;99.90;;;;;;5230395;28;20216;-70
2021/04/23 01:37:29;;;;;;;3.83;1.83;;;2.40;99.90;;;;;;5230740;28;20213;-65
2021/04/23 01:40:01;;;;;;;5.80;2.27;;;2.40;99.90;;;;;;5230568;28;20216;-65
2021/04/23 01:42:32;;;;;;;4.20;1.73;;;2.30;99.90;;;;;;5230502;28;20287;-65
2021/04/23 01:45:06;;;;;;;3.93;2.13;;;2.20;99.90;;;;;;5229399;28;20212;-65
2021/04/23 01:47:37;;;;;;;3.67;1.73;;;2.20;99.90;;;;;;5230447;28;20328;-66
2021/04/23 01:50:15;;;;;;;5.43;1.63;;;2.10;99.90;;;;;;5230220;28;20571;-67
2021/04/23 01:52:48;;;;;;;5.90;1.93;;;2.00;99.90;;;;;;5229027;28;20205;-66
2021/04/23 01:55:22;;;;;;;4.87;1.90;;;2.00;99.90;;;;;;5230223;28;20198;-65
2021/04/23 01:57:54;;;;;;;3.77;1.77;;;2.00;99.90;;;;;;5230296;28;20575;-65
2021/04/23 02:00:35;;;;;;;3.90;1.80;;;2.00;99.90;;;;;;5229951;28;20206;-67
2021/04/23 02:03:08;;;;;;;6.57;2.07;;;2.00;99.90;;;;;;5230030;28;20212;-64
2021/04/23 02:05:41;;;;;;;5.13;1.90;;;2.10;99.90;;;;;;5230037;28;20209;-66
2021/04/23 02:08:16;;;;;;;4.93;2.00;;;2.10;99.90;;;;;;5230504;28;20660;-65
2021/04/23 02:10:57;;;;;;;5.67;1.83;;;2.10;99.90;;;;;;5230029;28;20216;-68
2021/04/23 02:13:29;;;;;;;4.20;2.07;;;2.20;99.90;;;;;;5229888;28;20209;-66
2021/04/23 02:16:01;;;;;;;5.50;1.90;;;2.20;99.90;;;;;;5229475;28;20241;-65
2021/04/23 02:18:33;;;;;;;5.60;1.83;;;2.20;99.90;;;;;;5230238;28;20205;-65
2021/04/23 02:21:06;;;;;;;4.20;2.03;;;2.30;99.90;;;;;;5228254;28;20232;-66
2021/04/23 02:23:41;;;;;;;3.57;1.70;;;2.40;99.90;;;;;;5230389;28;20625;-66
2021/04/23 02:26:13;;;;;;;6.27;1.57;;;2.40;99.90;;;;;;5229659;28;20209;-65
2021/04/23 02:28:47;;;;;;;6.60;1.63;;;2.40;99.90;;;;;;5229804;28;20201;-66
2021/04/23 02:31:23;;;;;;;5.80;1.70;;;2.40;99.90;;;;;;5229557;28;20205;-65
2021/04/23 02:33:59;;;;;;;4.90;1.37;;;2.40;99.90;;;;;;5229335;28;20217;-65
2021/04/23 02:36:31;;;;;;;7.70;1.80;;;2.40;99.90;;;;;;5228215;28;20197;-65
2021/04/23 02:39:05;;;;;;;3.37;1.73;;;2.30;99.90;;;;;;5229617;28;20573;-65
2021/04/23 02:41:38;;;;;;;6.53;1.77;;;2.30;99.90;;;;;;5229280;28;20236;-65
2021/04/23 02:44:10;;;;;;;3.27;1.50;;;2.30;99.90;;;;;;5229101;28;20204;-66
2021/04/23 02:46:42;;;;;;;3.60;2.00;;;2.30;99.90;;;;;;5229328;28;20205;-66
2021/04/23 02:49:14;;;;;;;3.60;1.60;;;2.30;99.90;;;;;;5228970;28;20243;-65
2021/04/23 02:51:47;;;;;;;4.23;1.70;;;2.30;99.90;;;;;;5229190;28;20214;-67
2021/04/23 02:54:20;;;;;;;5.23;1.70;;;2.30;99.90;;;;;;5229134;28;20202;-65
2021/04/23 02:56:52;;;;;;;3.33;1.70;;;2.40;99.90;;;;;;5229008;28;20216;-66
2021/04/23 02:59:23;;;;;;;3.77;1.97;;;2.40;99.90;;;;;;5228799;28;20204;-65
2021/04/23 03:01:56;;;;;;;5.00;2.20;;;2.40;99.90;;;;;;5228820;28;20229;-66
2021/04/23 03:04:27;;;;;;;5.60;2.27;;;2.40;99.90;;;;;;5228250;28;20212;-65
2021/04/23 03:06:59;;;;;;;7.70;2.30;;;2.50;99.90;;;;;;5228641;28;20205;-65
2021/04/23 03:09:30;;;;;;;5.63;2.50;;;2.50;99.90;;;;;;5228631;28;20201;-66
2021/04/23 03:12:02;;;;;;;9.83;2.20;;;2.40;99.90;;;;;;5228687;28;20213;-65
2021/04/23 03:14:34;;;;;;;6.20;2.57;;;2.40;99.90;;;;;;5228612;28;20202;-66
2021/04/23 03:17:05;;;;;;;6.13;2.60;;;2.40;99.90;;;;;;5228522;28;20233;-66
2021/04/23 03:19:36;;;;;;;7.93;2.90;;;2.40;99.90;;;;;;5228788;28;20205;-66
2021/04/23 03:22:08;;;;;;;7.73;2.67;;;2.40;99.90;;;;;;5228411;28;20229;-65
2021/04/23 03:24:39;;;;;;;13.17;2.20;;;2.40;99.90;;;;;;5228594;28;20571;-66
2021/04/23 03:27:10;;;;;;;6.40;2.37;;;2.40;99.90;;;;;;5228469;28;20216;-65
2021/04/23 03:29:43;;;;;;;7.40;2.47;;;2.40;99.90;;;;;;5228505;28;20216;-65
2021/04/23 03:32:14;;;;;;;5.93;2.37;;;2.40;99.90;;;;;;5228655;28;20205;-64
2021/04/23 03:34:45;;;;;;;7.87;2.77;;;2.30;99.90;;;;;;5228027;28;20205;-64
2021/04/23 03:37:17;;;;;;;7.03;2.67;;;2.30;99.90;;;;;;5228595;28;20220;-64
2021/04/23 03:39:48;;;;;;;10.00;2.67;;;2.30;99.90;;;;;;5228478;28;20205;-65
2021/04/23 03:42:20;;;;;;;7.27;2.47;;;2.30;99.90;;;;;;5228289;28;20233;-68
2021/04/23 03:44:51;;;;;;;8.77;3.10;;;2.30;99.90;;;;;;5228283;28;20206;-66
2021/04/23 03:47:22;;;;;;;8.63;2.73;;;2.40;99.90;;;;;;5228045;28;20205;-64
2021/04/23 03:49:54;;;;;;;10.20;3.10;;;2.40;99.90;;;;;;5227673;28;20205;-65
2021/04/23 03:52:26;;;;;;;6.70;2.57;;;2.50;99.90;;;;;;5228225;28;20197;-67
2021/04/23 03:54:58;;;;;;;9.60;2.90;;;2.50;99.90;;;;;;5228071;28;20202;-65
2021/04/23 03:57:29;;;;;;;7.87;2.90;;;2.60;99.90;;;;;;5227951;28;20213;-65
2021/04/23 04:00:04;;;;;;;6.30;2.63;;;2.60;99.90;;;;;;5227942;28;20212;-66
2021/04/23 04:02:36;;;;;;;7.60;3.43;;;2.70;99.90;;;;;;5227855;28;20239;-66
2021/04/23 04:05:09;;;;;;;7.13;2.63;;;2.70;99.90;;;;;;5227734;28;20205;-67
2021/04/23 04:07:41;;;;;;;9.00;2.63;;;2.80;99.90;;;;;;5227975;28;20205;-67
2021/04/23 04:10:13;;;;;;;10.03;2.80;;;2.80;99.90;;;;;;5227670;28;20565;-66
2021/04/23 04:12:46;;;;;;;3.90;2.50;;;2.90;99.90;;;;;;5227812;28;20212;-66
2021/04/23 04:15:18;;;;;;;7.47;2.80;;;2.90;99.90;;;;;;5226992;28;20220;-66
2021/04/23 04:17:50;;;;;;;7.97;2.87;;;3.00;99.90;;;;;;5227568;28;20201;-67
2021/04/23 04:20:23;;;;;;;4.50;2.50;;;3.00;99.90;;;;;;5227246;28;20714;-66
2021/04/23 04:22:56;;;;;;;8.70;3.33;;;3.00;99.90;;;;;;5227503;28;20320;-64
2021/04/23 04:25:31;;;;;;;8.83;3.00;;;3.00;99.90;;;;;;5227434;28;20209;-67
2021/04/23 04:28:03;;;;;;;8.23;3.30;;;3.10;99.90;;;;;;5227079;28;20576;-65
2021/04/23 04:30:35;;;;;;;8.50;2.63;;;3.20;99.90;;;;;;5227543;28;20592;-66
2021/04/23 04:33:09;;;;;;;7.43;3.13;;;3.20;99.90;;;;;;5227645;28;20559;-66
2021/04/23 04:35:41;;;;;;;6.93;2.93;;;3.30;99.90;;;;;;5227056;28;20198;-64
2021/04/23 04:38:14;;;;;;;5.47;2.70;;;3.50;99.90;;;;;;5227674;28;20213;-66
2021/04/23 04:40:47;;;;;;;7.67;3.27;;;3.60;99.90;;;;;;5227205;28;20201;-66
2021/04/23 04:43:21;;;;;;;9.47;3.23;;;3.90;99.90;;;;;;5226324;28;20292;-68
2021/04/23 04:45:52;;;;;;;11.33;3.03;;;4.10;99.90;;;;;;5226976;28;20198;-65
2021/04/23 04:48:24;;;;;;;6.83;2.50;;;4.30;99.90;;;;;;5227338;28;20704;-66
2021/04/23 04:50:58;;;;;;;7.10;2.77;;;4.60;99.90;;;;;;5214847;28;20633;-67
2021/04/23 04:53:30;;;;;;;7.90;2.70;;;4.80;99.90;;;;;;5227147;28;20193;-66
2021/04/23 04:56:03;;;;;;;5.07;2.33;;;4.90;99.90;;;;;;5227380;28;20549;-66
2021/04/23 04:58:38;;;;;;;6.17;2.37;;;5.10;99.90;;;;;;5227121;28;20212;-66
2021/04/23 05:01:10;;;;;;;6.80;2.17;;;5.20;99.90;;;;;;5226831;28;20217;-66
2021/04/23 05:03:42;;;;;;;7.60;2.47;;;5.20;99.90;;;;;;5226999;28;20296;-65
2021/04/23 05:06:14;;;;;;;5.70;2.53;;;5.30;99.90;;;;;;5226996;28;20208;-65
2021/04/23 05:08:46;;;;;;;6.70;2.17;;;5.40;99.90;;;;;;5209579;28;20708;-66
2021/04/23 05:11:18;;;;;;;4.83;2.13;;;5.50;99.90;;;;;;5227105;28;20235;-65
2021/04/23 05:13:49;;;;;;;13.27;2.80;;;5.60;99.90;;;;;;5226713;28;20202;-66
2021/04/23 05:16:21;;;;;;;5.87;2.17;;;5.70;99.90;;;;;;5226951;28;20240;-66
2021/04/23 05:18:52;;;;;;;5.47;2.10;;;5.60;99.90;;;;;;5227094;28;20626;-67
2021/04/23 05:21:24;;;;;;;4.67;2.40;;;5.60;99.90;;;;;;5226940;28;20566;-67
2021/04/23 05:23:56;;;;;;;5.13;2.57;;;5.60;99.90;;;;;;5226507;28;20189;-66
2021/04/23 05:26:28;;;;;;;6.23;2.80;;;5.50;99.90;;;;;;5228340;28;20232;-65
2021/04/23 05:29:00;;;;;;;5.80;2.83;;;5.50;99.90;;;;;;5231281;28;20218;-66
2021/04/23 05:31:32;;;;;;;5.80;2.70;;;5.50;99.90;;;;;;5230424;28;20193;-66
2021/04/23 05:34:04;;;;;;;4.37;2.67;;;5.60;99.90;;;;;;5230357;28;20271;-66
2021/04/23 05:36:35;;;;;;;8.50;2.40;;;5.60;99.90;;;;;;5230427;28;20209;-67
2021/04/23 05:39:07;;;;;;;3.40;1.87;;;5.50;99.90;;;;;;5230398;28;20276;-67
2021/04/23 05:41:39;;;;;;;6.33;1.90;;;5.40;99.90;;;;;;5230440;28;20225;-65
2021/04/23 05:44:10;;;;;;;5.50;2.00;;;5.40;99.90;;;;;;5230376;28;20259;-66
2021/04/23 05:46:41;;;;;;;4.33;2.20;;;5.30;99.90;;;;;;5230352;28;20197;-65
2021/04/23 05:49:13;;;;;;;5.00;2.33;;;5.30;99.90;;;;;;5230450;28;20193;-68
2021/04/23 05:51:45;;;;;;;6.37;2.73;;;5.30;99.90;;;;;;5229880;28;20206;-66
2021/04/23 05:54:17;;;;;;;7.27;2.50;;;5.30;99.90;;;;;;5230290;28;20718;-68
2021/04/23 05:56:48;;;;;;;6.90;2.70;;;5.30;99.90;;;;;;5230007;28;20209;-68
2021/04/23 05:59:19;;;;;;;5.83;2.83;;;5.40;99.90;;;;;;5230058;28;20199;-67
2021/04/23 06:01:51;;;;;;;6.87;2.30;;;5.40;99.90;;;;;;5229692;28;20236;-67
2021/04/23 06:04:22;;;;;;;5.70;1.90;;;5.40;99.90;;;;;;5229862;28;20201;-66
2021/04/23 06:06:54;;;;;;;6.60;2.83;;;5.40;99.90;;;;;;5224876;28;20216;-69
2021/04/23 06:09:25;;;;;;;8.83;2.23;;;5.50;99.90;;;;;;5226796;28;20221;-69
2021/04/23 06:11:57;;;;;;;9.27;2.70;;;5.50;99.90;;;;;;5228716;28;20220;-67
2021/04/23 06:14:29;;;;;;;7.07;2.93;;;5.60;99.90;;;;;;5228035;28;20205;-64
2021/04/23 06:17:04;;;;;;;7.53;2.73;;;5.70;99.90;;;;;;5227043;28;20486;-69
2021/04/23 06:19:35;;;;;;;8.07;1.97;;;5.90;99.90;;;;;;5223716;28;20189;-66
2021/04/23 06:22:08;;;;;;;4.70;2.00;;;7.20;99.90;;;;;;5218002;28;20229;-67
2021/04/23 06:24:40;;;;;;;5.97;1.90;;;9.50;99.90;;;;;;5219150;28;20204;-67
2021/04/23 06:27:13;;;;;;;5.77;1.77;;;11.50;99.90;;;;;;5224795;28;20284;-67
2021/04/23 06:29:46;;;;;;;3.83;1.40;;;13.30;99.90;;;;;;5224602;28;20204;-66
2021/04/23 06:32:25;;;;;;;2.97;1.03;;;14.90;99.90;;;;;;5222493;28;20228;-67
2021/04/23 06:35:02;;;;;;;2.97;1.17;;;16.50;95.00;;;;;;5220714;28;20247;-67
2021/04/23 06:37:33;;;;;;;4.32;1.23;;;17.50;91.30;;;;;;5225744;28;20206;-67
2021/04/23 06:40:06;;;;;;;3.60;1.08;;;18.50;86.20;;;;;;5225267;28;20212;-67
2021/04/23 06:42:39;;;;;;;2.67;1.10;;;19.40;78.80;;;;;;5224375;28;20241;-65
2021/04/23 06:45:14;;;;;;;4.68;0.93;;;19.60;74.20;;;;;;5226084;28;20239;-60
2021/04/23 06:47:47;;;;;;;7.13;1.13;;;19.70;69.60;;;;;;5224513;28;20197;-58
2021/04/23 06:50:21;;;;;;;3.92;1.20;;;20.00;67.20;;;;;;5225511;28;20259;-56
2021/04/23 06:52:56;;;;;;;3.72;1.08;;;20.20;65.80;;;;;;5225739;28;20205;-70
2021/04/23 06:55:27;;;;;;;2.78;1.00;;;20.00;65.30;;;;;;5225758;28;20201;-69
2021/04/23 06:57:59;;;;;;;3.80;0.90;;;19.60;65.50;;;;;;5225715;28;20205;-67
2021/04/23 07:00:34;;;;;;;4.85;1.52;;;19.30;64.50;;;;;;5225597;28;20216;-70
2021/04/23 07:03:10;;;;;;;2.53;0.88;;;18.90;63.70;;;;;;5219012;28;20217;-68
2021/04/23 07:05:43;;;;;;;1.90;1.00;;;18.90;63.30;;;;;;5223946;28;20194;-71
2021/04/23 07:08:15;;;;;;;3.78;1.20;;;18.50;64.70;;;;;;5225016;28;20211;-71
2021/04/23 07:10:47;;;;;;;2.47;0.95;;;18.70;63.60;;;;;;5226249;28;20190;-73
2021/04/23 07:13:19;;;;;;;1.90;1.10;;;19.00;63.70;;;;;;5225921;28;20205;-74
2021/04/23 07:15:50;;;;;;;1.55;0.75;;;19.10;62.70;;;;;;5225838;28;20234;-76
2021/04/23 07:18:22;;;;;;;2.30;0.82;;;18.50;60.20;;;;;;5225401;28;20343;-75
2021/04/23 07:20:57;;;;;;;3.25;1.23;;;17.80;61.20;;;;;;5219824;28;20263;-68
2021/04/23 07:23:29;;;;;;;3.33;0.63;;;17.80;63.50;;;;;;5225208;28;20205;-69
2021/04/23 07:26:00;;;;;;;2.03;0.65;;;17.70;61.30;;;;;;5220258;28;20201;-67
2021/04/23 07:28:32;;;;;;;3.05;0.70;;;17.30;59.80;;;;;;5195764;28;20205;-69
2021/04/23 07:31:03;;;;;;;2.92;0.80;;;16.00;61.90;;;;;;5214639;28;20248;-66
2021/04/23 07:33:35;;;;;;;2.45;0.60;;;14.50;64.50;;;;;;5221930;28;20190;-69
2021/04/23 07:36:07;;;;;;;5.38;0.90;;;13.60;67.10;;;;;;5205343;28;20201;-66
2021/04/23 07:38:38;;;;;;;2.75;0.88;;;13.00;69.70;;;;;;5227160;28;20704;-69
2021/04/23 07:41:10;;;;;;;5.55;0.88;;;12.60;70.90;;;;;;5222171;28;20206;-66
2021/04/23 07:43:41;;;;;;;1.00;0.40;;;12.50;71.80;;;;;;5222675;28;20221;-67
2021/04/23 07:46:14;;;;;;;2.03;0.50;;;11.90;69.40;;;;;;5226249;28;20193;-67
2021/04/23 07:48:46;;;;;;;0.93;0.57;;;11.40;72.70;;;;;;5224025;28;20217;-68
2021/04/23 07:51:19;;;;;;;1.70;0.50;;;10.50;72.00;;;;;;5223133;28;20232;-73
2021/04/23 07:53:50;;;;;;;2.53;0.60;;;10.20;72.70;;;;;;5223253;28;20198;-69
2021/04/23 07:56:22;;;;;;;1.70;0.57;;;10.10;73.30;;;;;;5223126;28;20260;-70
2021/04/23 07:58:53;;;;;;;4.20;0.60;;;10.20;75.50;;;;;;5185960;28;20213;-70
2021/04/23 08:01:25;;;;;;;0.93;0.57;;;10.20;72.90;;;;;;5222938;28;20300;-71
2021/04/23 08:03:56;;;;;;;1.03;0.57;;;10.00;72.60;;;;;;5223521;28;20193;-73
2021/04/23 08:06:28;;;;;;;1.60;0.70;;;9.80;74.10;;;;;;5222275;28;20208;-73
2021/04/23 08:09:00;;;;;;;3.60;0.97;;;9.80;76.10;;;;;;5223614;28;20204;-73
2021/04/23 08:11:32;;;;;;;1.83;0.70;;;10.20;77.20;;;;;;5221180;28;20193;-71
2021/04/23 08:14:04;;;;;;;3.33;0.60;;;10.20;75.20;;;;;;5220520;28;20190;-71
2021/04/23 08:16:35;;;;;;;2.97;0.67;;;10.20;73.80;;;;;;5202379;28;20328;-69
2021/04/23 08:19:07;;;;;;;1.43;0.67;;;9.90;74.40;;;;;;5203017;28;20228;-70
2021/04/23 08:21:38;;;;;;;1.00;0.63;;;9.90;73.40;;;;;;5203805;28;20234;-70
2021/04/23 08:24:10;;;;;;;2.50;0.60;;;9.90;71.70;;;;;;5215083;28;20564;-70
2021/04/23 08:26:43;;;;;;;0.83;0.50;;;9.80;73.10;;;;;;5224444;28;20208;-69
2021/04/23 08:29:14;;;;;;;2.17;0.40;;;9.80;75.60;;;;;;5225543;28;20194;-69
2021/04/23 08:31:46;;;;;;;3.03;0.60;;;9.80;71.40;;;;;;5223853;28;20212;-72
2021/04/23 08:34:17;;;;;;;2.40;0.50;;;9.80;74.20;;;;;;5224310;28;20615;-70
2021/04/23 08:36:49;;;;;;;1.80;0.50;;;9.40;68.40;;;;;;5223596;28;20237;-68
2021/04/23 08:39:20;;;;;;;4.80;0.50;;;9.40;72.70;;;;;;5228925;28;20225;-72
2021/04/23 08:41:52;;;;;;;2.03;0.57;;;9.60;72.90;;;;;;5223889;28;20255;-72
2021/04/23 08:44:23;;;;;;;1.80;0.53;;;9.70;71.50;;;;;;5224038;28;20186;-73
2021/04/23 08:46:58;;;;;;;1.60;0.40;;;9.30;69.50;;;;;;5219394;28;20304;-71
2021/04/23 08:49:30;;;;;;;2.10;0.60;;;9.10;73.20;;;;;;5216244;28;20496;-72
2021/04/23 08:52:01;;;;;;;4.07;0.77;;;9.20;71.80;;;;;;5232093;28;20209;-73
2021/04/23 08:54:33;;;;;;;2.20;0.40;;;9.30;72.40;;;;;;5221521;28;20196;-70
2021/04/23 08:57:06;;;;;;;2.10;0.40;;;9.50;70.30;;;;;;5223227;28;20194;-69
2021/04/23 08:59:37;;;;;;;1.33;0.57;;;9.70;67.20;;;;;;5212376;28;20198;-71
2021/04/23 09:02:09;;;;;;;0.60;0.40;;;9.80;66.80;;;;;;5216427;28;20245;-70
2021/04/23 09:04:40;;;;;;;0.97;0.63;;;9.70;67.10;;;;;;5227278;28;20205;-70
2021/04/23 09:07:12;;;;;;;0.70;0.50;;;9.60;65.30;;;;;;5227841;28;20207;-71
2021/04/23 09:09:44;;;;;;;0.80;0.50;;;9.60;67.80;;;;;;5227306;28;20243;-69
2021/04/23 09:12:24;;;;;;;0.93;0.40;;;9.60;67.50;;;;;;5228158;28;20197;-69
2021/04/23 09:14:56;;;;;;;0.43;0.30;;;9.70;67.00;;;;;;5227236;28;20571;-71
2021/04/23 09:17:29;;;;;;;1.03;0.47;;;9.20;65.10;;;;;;5227086;28;20273;-71
2021/04/23 09:20:00;;;;;;;0.70;0.40;;;8.70;65.80;;;;;;5227386;28;20206;-69
2021/04/23 09:22:33;;;;;;;1.40;0.50;;;8.40;67.20;;;;;;5218040;28;20233;-69
2021/04/23 09:25:12;;;;;;;0.83;0.40;;;8.50;69.10;;;;;;5227763;28;20645;-71
2021/04/23 09:27:49;;;;;;;0.57;0.33;;;8.70;67.70;;;;;;5226684;28;20197;-69
2021/04/23 09:30:28;;;;;;;1.33;0.43;;;8.80;68.80;;;;;;5215890;28;20203;-68
2021/04/23 09:33:01;;;;;;;1.27;0.50;;;9.00;68.70;;;;;;5227988;28;20220;-70
2021/04/23 09:35:36;;;;;;;2.00;0.47;;;9.00;67.60;;;;;;5226960;28;20193;-69
2021/04/23 09:38:17;;;;;;;2.60;0.50;;;9.00;68.00;;;;;;5226793;28;20212;-68
2021/04/23 09:40:49;;;;;;;1.20;0.50;;;8.80;67.50;;;;;;5226109;28;20204;-70
2021/04/23 09:43:37;;;;;;;0.77;0.40;;;8.50;67.20;;;;;;5227173;28;20221;-71
2021/04/23 09:46:08;;;;;;;2.93;0.93;;;8.60;69.50;;;;;;5227312;28;20202;-72
2021/04/23 09:48:40;;;;;;;2.10;0.60;;;8.70;69.50;;;;;;5223541;28;20206;-70
2021/04/23 09:51:18;;;;;;;1.80;0.70;;;8.80;69.10;;;;;;5225388;28;20201;-74
2021/04/23 09:53:50;;;;;;;1.47;0.60;;;9.20;68.70;;;;;;5225038;28;20293;-72
2021/04/23 09:56:34;;;;;;;1.27;0.30;;;9.30;68.40;;;;;;5226396;28;20204;-75
2021/04/23 09:59:32;;;;;;;1.43;0.60;;;9.00;67.50;;;;;;5224468;28;20194;-75
2021/04/23 10:02:05;;;;;;;3.43;1.00;;;8.80;69.50;;;;;;5221880;28;20237;-77
2021/04/23 10:04:36;;;;;;;4.07;1.00;;;8.70;67.70;;;;;;5226716;28;20342;-72
2021/04/23 10:07:25;;;;;;;2.50;0.80;;;8.60;68.20;;;;;;5225980;28;20248;-72
2021/04/23 10:09:59;;;;;;;1.60;0.60;;;8.70;69.20;;;;;;5223895;28;20301;-75
2021/04/23 10:12:33;;;;;;;1.70;0.70;;;8.90;68.50;;;;;;5225614;28;20554;-75
2021/04/23 10:15:10;;;;;;;2.47;0.70;;;9.00;68.10;;;;;;5225375;28;20190;-72
2021/04/23 10:17:44;;;;;;;2.03;0.60;;;9.30;67.60;;;;;;5223281;28;20320;-72
2021/04/23 10:20:26;;;;;;;8.13;0.60;;;9.30;64.70;;;;;;5224115;28;20291;-76
2021/04/23 10:22:59;;;;;;;0.80;0.40;;;9.10;66.50;;;;;;5179901;28;20642;-71
2021/04/23 10:25:32;;;;;;;1.07;0.47;;;9.10;65.80;;;;;;5187421;28;20679;-72
2021/04/23 10:28:08;;;;;;;1.90;0.70;;;9.20;64.70;;;;;;5238284;28;20683;-79
2021/04/23 10:30:42;;;;;;;3.53;0.70;;;9.40;65.90;;;;;;5225973;28;20566;-75
2021/04/23 10:33:16;;;;;;;4.50;0.60;;;9.40;64.30;;;;;;5226334;28;20237;-71
2021/04/23 10:35:51;;;;;;;1.00;0.50;;;9.30;65.50;;;;;;5226011;28;20389;-82
2021/04/23 10:38:35;;;;;;;1.33;0.53;;;9.30;65.90;;;;;;5226120;28;20256;-77
2021/04/23 10:41:10;;;;;;;1.53;0.50;;;9.30;66.20;;;;;;5224766;28;20247;-73
2021/04/23 10:43:54;;;;;;;0.80;0.43;;;9.60;67.60;;;;;;5223228;28;20197;-71
2021/04/23 10:46:27;;;;;;;0.97;0.40;;;9.70;66.40;;;;;;5234710;28;20563;-70
2021/04/23 10:49:07;;;;;;;1.27;0.30;;;9.60;65.70;;;;;;5223263;28;20239;-72
2021/04/23 10:51:39;;;;;;;0.90;0.43;;;9.40;65.50;;;;;;5224624;28;20220;-74
2021/04/23 10:54:15;;;;;;;0.77;0.67;;;9.10;65.80;;;;;;5223971;28;20223;-72
2021/04/23 10:56:54;;;;;;;2.57;0.63;;;9.20;65.10;;;;;;5216859;28;20204;-71
2021/04/23 10:59:35;;;;;;;2.20;0.67;;;9.30;64.50;;;;;;5223487;28;20366;-71
2021/04/23 11:02:18;;;;;;;1.93;0.50;;;9.30;66.10;;;;;;5216842;28;20244;-70
2021/04/23 11:05:00;;;;;;;2.20;0.60;;;9.00;63.30;;;;;;5225951;28;20201;-71
2021/04/23 11:07:32;;;;;;;1.20;0.50;;;8.90;65.10;;;;;;5225014;28;20671;-73
2021/04/23 11:10:05;;;;;;;5.10;0.83;;;8.90;63.90;;;;;;5226509;28;20840;-71
2021/04/23 11:12:37;;;;;;;1.97;0.80;;;9.00;64.60;;;;;;5223366;28;20217;-72
2021/04/23 11:15:18;;;;;;;2.07;0.40;;;9.30;64.30;;;;;;5222955;28;20213;-74
2021/04/23 11:17:49;;;;;;;2.57;0.60;;;9.20;62.70;;;;;;5206527;28;20244;-72
2021/04/23 11:20:29;;;;;;;0.93;0.70;;;9.00;63.70;;;;;;5224888;28;20202;-70
2021/04/23 11:23:03;;;;;;;1.37;0.50;;;8.70;65.50;;;;;;5224561;28;20764;-70
2021/04/23 11:25:54;;;;;;;1.40;0.50;;;8.50;66.30;;;;;;5225233;28;20617;-75
2021/04/23 11:28:25;;;;;;;3.10;1.10;;;8.20;66.60;;;;;;5210194;28;20546;-73
2021/04/23 11:30:58;;;;;;;1.27;0.70;;;8.20;68.70;;;;;;5224673;28;20197;-71
2021/04/23 11:33:55;;;;;;;0.60;0.50;;;8.30;67.40;;;;;;5206081;28;20909;-73
2021/04/23 11:36:38;;;;;;;4.20;0.80;;;8.40;66.70;;;;;;5224573;28;20213;-73
2021/04/23 11:39:12;;;;;;;0.93;0.60;;;8.70;66.30;;;;;;5224401;28;20209;-75
2021/04/23 11:42:09;;;;;;;1.77;1.00;;;8.90;67.50;;;;;;5224500;28;20221;-75
2021/04/23 11:44:47;;;;;;;1.20;0.60;;;9.00;65.90;;;;;;5224848;28;20206;-77
2021/04/23 11:47:25;;;;;;;2.20;0.80;;;9.10;65.90;;;;;;5224497;28;20201;-74
2021/04/23 11:50:16;;;;;;;0.87;0.60;;;9.20;65.80;;;;;;5224380;28;20306;-78
2021/04/23 11:52:56;;;;;;;1.70;0.80;;;9.40;66.40;;;;;;5215485;28;20209;-73
2021/04/23 11:55:31;;;;;;;1.90;0.87;;;9.30;64.70;;;;;;5216746;28;20208;-74
2021/04/23 11:58:09;;;;;;;1.50;0.60;;;9.40;64.50;;;;;;5152510;28;21387;-73
2021/04/23 12:00:46;;;;;;;0.97;0.40;;;9.40;63.10;;;;;;5202412;28;20212;-73
2021/04/23 12:03:19;;;;;;;2.40;0.70;;;9.30;64.30;;;;;;5222767;28;20729;-72
2021/04/23 12:05:52;;;;;;;3.27;0.50;;;9.30;62.60;;;;;;5223977;28;20201;-74
2021/04/23 12:08:27;;;;;;;2.40;0.80;;;9.20;63.10;;;;;;5222535;28;20206;-75
2021/04/23 12:11:04;;;;;;;2.97;0.73;;;9.10;63.50;;;;;;5217163;28;20193;-75
2021/04/23 12:13:39;;;;;;;1.00;0.43;;;8.90;60.70;;;;;;5221247;28;20608;-74
2021/04/23 12:16:15;;;;;;;1.03;0.30;;;8.80;60.40;;;;;;5222552;28;20242;-72
2021/04/23 12:18:50;;;;;;;1.77;0.80;;;8.60;63.10;;;;;;5222956;28;20279;-74
2021/04/23 12:21:22;;;;;;;2.60;0.70;;;8.60;64.80;;;;;;5224319;28;20194;-72
2021/04/23 12:23:55;;;;;;;2.17;0.60;;;8.60;63.10;;;;;;5222430;28;20208;-74
2021/04/23 12:26:26;;;;;;;2.23;0.67;;;8.60;64.00;;;;;;5221635;28;20553;-73
2021/04/23 12:29:02;;;;;;;8.00;0.80;;;8.80;64.00;;;;;;5222448;28;20186;-75
2021/04/23 12:31:40;;;;;;;1.70;0.50;;;8.90;63.30;;;;;;5220835;28;20204;-73
2021/04/23 12:34:14;;;;;;;2.27;0.60;;;8.90;63.30;;;;;;5220584;28;20205;-74
2021/04/23 12:36:52;;;;;;;2.03;0.50;;;8.80;64.30;;;;;;5218274;28;20218;-72
2021/04/23 12:39:26;;;;;;;1.43;0.60;;;8.70;62.30;;;;;;5218516;28;20205;-74
2021/04/23 12:42:03;;;;;;;5.03;0.70;;;8.70;58.90;;;;;;5218521;28;20221;-74
2021/04/23 12:44:35;;;;;;;5.70;0.63;;;8.80;60.20;;;;;;5223760;28;20201;-72
2021/04/23 12:47:10;;;;;;;1.63;0.50;;;8.90;61.60;;;;;;5221811;28;20278;-73
2021/04/23 12:49:43;;;;;;;1.30;0.63;;;8.80;60.80;;;;;;5223458;28;20204;-73
2021/04/23 12:52:20;;;;;;;1.47;0.40;;;8.80;60.90;;;;;;5226503;28;20582;-72
2021/04/23 12:54:53;;;;;;;1.07;0.40;;;8.80;59.80;;;;;;5221856;28;20292;-73
2021/04/23 12:57:32;;;;;;;0.53;0.40;;;8.90;60.40;;;;;;5226206;28;20194;-76
2021/04/23 13:00:06;;;;;;;0.80;0.30;;;9.00;59.00;;;;;;5226934;28;20194;-73
2021/04/23 13:02:41;;;;;;;0.73;0.40;;;9.00;57.50;;;;;;5210443;28;20209;-73
2021/04/23 13:05:19;;;;;;;2.87;0.47;;;9.00;59.80;;;;;;5218130;28;20819;-72
2021/04/23 13:08:00;;;;;;;2.53;0.77;;;9.00;60.20;;;;;;5225770;28;20197;-73
2021/04/23 13:10:38;;;;;;;1.30;0.50;;;9.00;60.70;;;;;;5225828;28;20284;-74
2021/04/23 13:13:13;;;;;;;0.70;0.47;;;9.00;57.70;;;;;;5226499;28;20208;-73
2021/04/23 13:15:55;;;;;;;0.50;0.30;;;8.90;59.60;;;;;;5226290;28;20927;-74
2021/04/23 13:18:30;;;;;;;2.47;0.57;;;8.80;59.00;;;;;;5225026;28;20308;-73
2021/04/23 13:21:03;;;;;;;2.77;0.60;;;8.80;59.20;;;;;;5226305;28;20213;-75
2021/04/23 13:23:49;;;;;;;2.00;0.60;;;8.90;59.90;;;;;;5222384;28;20929;-74
2021/04/23 13:26:21;;;;;;;0.47;0.40;;;9.00;60.40;;;;;;5227469;28;20200;-73
2021/04/23 13:29:02;;;;;;;9.33;0.70;;;8.80;61.00;;;;;;5225411;28;20202;-73